Time;durP1;ratioP1;P1;durP2;ratioP2;P2;SDS_P1;SDS_P2;PMS_P1;PMS_P2;Temp;Humidity;BMP_temperature;BMP_pressure;BME280_temperature;BME280_humidity;BME280_pressure;Samples;Min_cycle;Max_cycle;Signal;HPM_P1;HPM_P2
2022/09/07 00:01:14;;;;;;;7.23;4.83;;;;;;;17.73;94.23;101135.81;5283435;28;20477;-77
2022/09/07 00:03:45;;;;;;;9.17;4.43;;;;;;;17.60;93.51;101139.81;5283506;28;20040;-77
2022/09/07 00:06:16;;;;;;;5.87;4.17;;;;;;;17.46;93.71;101141.16;5283620;28;20029;-75
2022/09/07 00:08:48;;;;;;;6.00;3.67;;;;;;;17.63;92.13;101127.38;5282215;28;20033;-74
2022/09/07 00:11:19;;;;;;;8.27;4.57;;;;;;;17.38;92.55;101114.22;5283093;28;20484;-79
2022/09/07 00:13:51;;;;;;;5.60;3.73;;;;;;;17.29;93.23;101112.78;5282584;28;20389;-77
2022/09/07 00:16:25;;;;;;;5.40;3.80;;;;;;;17.13;94.39;101106.34;5283132;28;20429;-77
2022/09/07 00:18:59;;;;;;;6.50;3.78;;;;;;;16.92;95.04;101095.63;5283128;28;20473;-77
2022/09/07 00:21:31;;;;;;;6.90;4.35;;;;;;;17.01;95.81;101098.88;5283331;28;20032;-77
2022/09/07 00:24:03;;;;;;;4.83;3.40;;;;;;;17.18;95.80;101111.44;5283080;28;20038;-76
2022/09/07 00:26:35;;;;;;;5.00;3.50;;;;;;;16.88;95.11;101114.22;5283912;28;20333;-77
2022/09/07 00:29:06;;;;;;;5.50;3.38;;;;;;;16.98;95.13;101098.97;5271261;28;20104;-77
2022/09/07 00:31:38;;;;;;;9.07;3.90;;;;;;;16.92;95.11;101106.19;5262369;28;20116;-76
2022/09/07 00:34:09;;;;;;;5.53;3.83;;;;;;;17.19;95.07;101105.25;5261255;28;20037;-76
2022/09/07 00:36:41;;;;;;;4.77;3.70;;;;;;;16.95;94.88;101110.47;5262221;28;20384;-76
2022/09/07 00:39:12;;;;;;;8.77;4.43;;;;;;;16.98;94.90;101102.47;5261200;28;20033;-76
2022/09/07 00:41:43;;;;;;;5.17;3.80;;;;;;;17.02;94.59;101096.19;5260772;28;20033;-76
2022/09/07 00:44:43;;;;;;;5.07;4.00;;;;;;;16.88;95.15;101088.75;5259078;28;20045;-77
2022/09/07 00:47:36;;;;;;;6.80;4.10;;;;;;;16.82;94.89;101082.81;5261125;28;20086;-76
2022/09/07 00:50:29;;;;;;;4.75;3.83;;;;;;;17.06;94.48;101060.06;5262720;28;20095;-76
2022/09/07 00:53:06;;;;;;;5.65;4.22;;;;;;;16.70;94.68;101058.63;5261752;28;20033;-77
2022/09/07 00:55:41;;;;;;;6.00;4.35;;;;;;;16.51;95.59;101050.47;5261517;28;20029;-77
2022/09/07 00:58:13;;;;;;;5.50;4.32;;;;;;;16.61;96.31;101045.75;5261986;28;20036;-76
2022/09/07 01:00:46;;;;;;;7.23;4.43;;;;;;;16.51;96.22;101047.84;5262040;28;20033;-76
2022/09/07 01:03:23;;;;;;;5.55;3.90;;;;;;;16.39;96.93;101041.22;5261661;28;20025;-76
2022/09/07 01:05:59;;;;;;;7.53;4.90;;;;;;;16.41;97.09;101054.34;5260934;28;20360;-76
2022/09/07 01:08:31;;;;;;;7.53;4.38;;;;;;;16.41;97.28;101062.22;5262197;28;20468;-76
2022/09/07 01:11:03;;;;;;;5.90;4.40;;;;;;;16.52;97.73;101056.63;5262265;28;20128;-75
2022/09/07 01:13:35;;;;;;;5.93;4.57;;;;;;;16.60;97.03;101054.59;5282285;28;20032;-79
2022/09/07 01:16:12;;;;;;;4.95;4.13;;;;;;;16.46;97.02;101057.66;5281680;28;20024;-76
2022/09/07 01:19:15;;;;;;;5.97;4.18;;;;;;;16.90;96.10;101057.09;5282601;28;20245;-76
2022/09/07 01:22:03;;;;;;;6.50;4.00;;;;;;;16.84;95.75;101054.63;5282778;28;20025;-76
2022/09/07 01:25:19;;;;;;;5.35;4.00;;;;;;;17.00;95.32;101065.53;5282779;28;20031;-76
2022/09/07 01:28:19;;;;;;;5.20;3.65;;;;;;;16.69;95.08;101062.16;5221957;28;20032;-77
2022/09/07 01:30:56;;;;;;;4.65;3.78;;;;;;;17.10;94.99;101066.94;5240059;28;20477;-76
2022/09/07 01:34:29;;;;;;;5.28;3.80;;;;;;;16.89;94.57;101066.78;5278592;28;20062;-75
2022/09/07 01:37:17;;;;;;;5.85;3.88;;;;;;;16.73;95.25;101070.81;5240228;28;20049;-75
2022/09/07 01:40:01;;;;;;;7.00;3.75;;;;;;;17.06;94.47;101058.28;5286944;28;20119;-76
2022/09/07 01:42:44;;;;;;;5.10;4.20;;;;;;;17.25;93.98;101062.91;5286682;28;20383;-76
2022/09/07 01:45:20;;;;;;;5.18;3.72;;;;;;;17.23;93.82;101067.38;5286151;28;20047;-76
2022/09/07 01:47:59;;;;;;;4.90;4.00;;;;;;;17.07;94.75;101067.91;5286383;28;20029;-77
2022/09/07 01:50:39;;;;;;;7.10;4.00;;;;;;;17.44;92.44;101065.72;5286081;28;20476;-77
2022/09/07 01:53:21;;;;;;;6.18;3.63;;;;;;;17.40;92.02;101051.78;5286455;28;20047;-77
2022/09/07 01:56:10;;;;;;;5.13;3.75;;;;;;;17.28;92.76;101060.16;5284548;28;20086;-75
2022/09/07 01:58:59;;;;;;;5.88;4.05;;;;;;;17.43;91.37;101075.38;5286172;28;20364;-75
2022/09/07 02:01:59;;;;;;;7.63;4.10;;;;;;;17.42;91.24;101068.41;5286130;28;20024;-75
2022/09/07 02:04:40;;;;;;;6.78;3.90;;;;;;;17.13;92.45;101072.97;5286620;28;20033;-76
2022/09/07 02:07:19;;;;;;;4.47;3.67;;;;;;;17.28;91.70;101057.53;5285997;28;20038;-75
2022/09/07 02:09:57;;;;;;;6.57;3.67;;;;;;;17.29;92.22;101064.47;5286199;28;20512;-76
2022/09/07 02:12:28;;;;;;;5.63;4.28;;;;;;;17.05;92.27;101064.47;5286220;28;20048;-77
2022/09/07 02:15:05;;;;;;;5.88;3.67;;;;;;;17.17;91.97;101057.91;5286074;28;20029;-78
2022/09/07 02:17:42;;;;;;;5.00;3.58;;;;;;;17.19;91.73;101069.22;5285837;28;20037;-77
2022/09/07 02:20:35;;;;;;;5.22;3.28;;;;;;;17.14;91.78;101063.28;5285889;28;20464;-76
2022/09/07 02:23:16;;;;;;;5.45;3.33;;;;;;;16.88;92.25;101056.31;5285785;28;20052;-77
2022/09/07 02:25:54;;;;;;;5.13;3.92;;;;;;;17.07;91.92;101060.00;5285125;28;20029;-77
2022/09/07 02:28:29;;;;;;;4.90;3.40;;;;;;;16.99;92.30;101058.56;5285507;28;20122;-77
2022/09/07 02:31:01;;;;;;;7.20;3.95;;;;;;;17.06;92.20;101060.91;5285354;28;20360;-77
2022/09/07 02:33:32;;;;;;;5.33;3.63;;;;;;;16.95;92.20;101065.69;5285022;28;20098;-77
2022/09/07 02:36:05;;;;;;;5.63;4.03;;;;;;;17.02;92.28;101061.94;5285396;28;20657;-76
2022/09/07 02:38:36;;;;;;;4.90;3.95;;;;;;;16.88;92.54;101065.06;5285283;28;20086;-77
2022/09/07 02:41:33;;;;;;;4.43;3.53;;;;;;;16.99;92.37;101067.31;5285213;28;20116;-77
2022/09/07 02:44:11;;;;;;;5.22;3.60;;;;;;;17.05;92.02;101067.09;5283905;28;20021;-77
2022/09/07 02:46:51;;;;;;;5.72;4.45;;;;;;;16.66;93.06;101064.88;5284944;28;20464;-76
2022/09/07 02:49:54;;;;;;;5.68;3.95;;;;;;;16.83;92.79;101071.38;5285242;28;20056;-76
2022/09/07 02:53:02;;;;;;;5.82;3.83;;;;;;;16.77;92.48;101061.91;5285227;28;20046;-77
2022/09/07 02:55:55;;;;;;;4.88;3.90;;;;;;;16.80;92.33;101061.78;5284281;28;20199;-77
2022/09/07 02:58:49;;;;;;;5.78;4.00;;;;;;;16.81;92.80;101071.41;5285158;28;20024;-77
2022/09/07 03:01:56;;;;;;;5.60;4.68;;;;;;;16.73;93.14;101069.03;5285162;28;20128;-77
2022/09/07 03:04:53;;;;;;;6.72;4.45;;;;;;;16.54;94.17;101065.31;5284704;28;20020;-76
2022/09/07 03:07:34;;;;;;;6.53;4.97;;;;;;;16.58;94.61;101065.16;5285046;28;20032;-76
2022/09/07 03:10:07;;;;;;;6.78;4.75;;;;;;;16.36;95.02;101070.25;5284762;28;20039;-75
2022/09/07 03:12:43;;;;;;;5.57;5.00;;;;;;;16.58;95.81;101066.91;5284907;28;20118;-76
2022/09/07 03:15:21;;;;;;;6.80;4.68;;;;;;;16.51;95.67;101062.78;5284953;28;20032;-76
2022/09/07 03:17:53;;;;;;;6.22;5.05;;;;;;;16.69;95.22;101070.03;5283342;28;20028;-77
2022/09/07 03:20:24;;;;;;;6.73;5.23;;;;;;;16.74;96.09;101057.63;5284671;28;20044;-76
2022/09/07 03:22:56;;;;;;;7.10;5.07;;;;;;;16.76;94.63;101053.16;5284496;28;20274;-76
2022/09/07 03:25:27;;;;;;;6.13;4.57;;;;;;;16.69;95.35;101045.50;5283750;28;20040;-76
2022/09/07 03:27:58;;;;;;;7.00;5.00;;;;;;;16.68;95.59;101047.28;5284530;28;20515;-76
2022/09/07 03:30:30;;;;;;;6.00;5.40;;;;;;;16.72;95.72;101056.78;5284664;28;20044;-76
2022/09/07 03:33:02;;;;;;;7.60;5.53;;;;;;;16.59;95.94;101058.13;5283339;28;20039;-75
2022/09/07 03:35:34;;;;;;;7.87;5.53;;;;;;;16.50;96.63;101063.69;5284162;28;20124;-77
2022/09/07 03:38:05;;;;;;;6.57;4.32;;;;;;;16.89;96.82;101047.50;5283875;28;20035;-77
2022/09/07 03:40:37;;;;;;;7.13;5.43;;;;;;;16.67;96.84;101057.88;5283956;28;20487;-76
2022/09/07 03:43:08;;;;;;;7.53;5.47;;;;;;;16.82;96.81;101052.06;5283972;28;20033;-77
2022/09/07 03:45:39;;;;;;;5.83;5.27;;;;;;;16.62;96.80;101062.44;5290025;28;20051;-76
2022/09/07 03:48:11;;;;;;;6.87;5.40;;;;;;;16.56;97.19;101060.84;5299381;28;20035;-76
2022/09/07 03:50:42;;;;;;;7.23;5.47;;;;;;;16.68;97.58;101059.56;5285326;28;20083;-77
2022/09/07 03:53:13;;;;;;;7.87;5.47;;;;;;;16.46;97.83;101052.41;5284158;28;20468;-77
2022/09/07 03:55:57;;;;;;;8.30;5.50;;;;;;;16.44;98.70;101053.34;5283680;28;20027;-77
2022/09/07 03:58:30;;;;;;;6.97;5.70;;;;;;;16.38;99.28;101050.00;5284112;28;20428;-76
2022/09/07 04:01:07;;;;;;;6.43;5.68;;;;;;;16.43;98.86;101051.66;5284085;28;20466;-77
2022/09/07 04:03:39;;;;;;;7.22;5.90;;;;;;;16.57;98.56;101036.25;5283705;28;20033;-77
2022/09/07 04:06:10;;;;;;;7.27;5.70;;;;;;;16.58;98.72;101030.06;5283783;28;20460;-76
2022/09/07 04:08:42;;;;;;;7.37;5.67;;;;;;;16.37;98.14;101021.13;5283339;28;20025;-76
2022/09/07 04:11:16;;;;;;;11.65;6.80;;;;;;;16.33;98.37;101023.00;5283123;28;20057;-76
2022/09/07 04:13:47;;;;;;;6.75;5.63;;;;;;;16.56;98.98;101016.13;5283674;28;20127;-77
2022/09/07 04:16:21;;;;;;;6.97;6.27;;;;;;;16.37;98.21;101011.50;5283604;28;20099;-77
2022/09/07 04:18:57;;;;;;;7.15;5.78;;;;;;;16.43;98.57;101010.41;5283623;28;20474;-77
2022/09/07 04:21:30;;;;;;;7.72;6.07;;;;;;;16.23;98.70;101008.44;5283530;28;20024;-77
2022/09/07 04:24:02;;;;;;;10.95;6.80;;;;;;;16.26;99.55;101002.22;5283469;28;20033;-76
2022/09/07 04:26:35;;;;;;;7.87;6.27;;;;;;;16.30;99.75;101011.72;5282959;28;20040;-75
2022/09/07 04:29:07;;;;;;;;;;;;;;;16.44;98.14;101014.75;5284111;28;20305;-76
2022/09/07 04:31:38;;;;;;;9.55;7.03;;;;;;;16.27;98.79;101025.84;5283471;28;19984;-76
2022/09/07 04:34:10;;;;;;;9.30;6.63;;;;;;;16.35;99.30;101036.97;5283461;28;20029;-75
2022/09/07 04:36:42;;;;;;;6.68;5.90;;;;;;;16.28;99.33;101039.88;5288027;28;20032;-75
2022/09/07 04:39:13;;;;;;;8.57;7.20;;;;;;;16.31;99.57;101039.75;5290370;28;20071;-77
2022/09/07 04:41:45;;;;;;;10.50;6.50;;;;;;;16.20;98.97;101033.06;5290198;28;20065;-75
2022/09/07 04:44:16;;;;;;;9.90;7.60;;;;;;;16.15;98.92;101032.38;5285946;28;20459;-76
2022/09/07 04:46:47;;;;;;;7.03;6.33;;;;;;;16.36;98.94;101036.06;5283143;28;20036;-76
2022/09/07 04:49:19;;;;;;;8.47;5.83;;;;;;;16.23;98.74;101040.00;5283398;28;20043;-76
2022/09/07 04:51:51;;;;;;;7.90;6.63;;;;;;;16.37;98.53;101032.53;5283041;28;20036;-76
2022/09/07 04:54:22;;;;;;;8.07;6.40;;;;;;;16.31;98.77;101027.47;5283068;28;20097;-76
2022/09/07 04:56:53;;;;;;;6.90;6.20;;;;;;;16.36;98.79;101029.94;5281408;28;20032;-76
2022/09/07 04:59:25;;;;;;;10.40;7.27;;;;;;;16.35;98.89;101028.22;5281723;28;20059;-75
2022/09/07 05:01:56;;;;;;;7.80;7.00;;;;;;;16.26;99.11;101024.13;5282957;28;20511;-76
2022/09/07 05:04:27;;;;;;;8.03;7.07;;;;;;;16.25;99.39;101027.66;5282725;28;20055;-75
2022/09/07 05:06:59;;;;;;;8.40;7.60;;;;;;;16.10;98.98;101020.25;5286430;28;20578;-75
2022/09/07 05:09:30;;;;;;;12.13;7.67;;;;;;;16.06;99.32;101019.50;5286717;28;20036;-75
2022/09/07 05:12:02;;;;;;;8.37;6.37;;;;;;;16.28;99.33;101010.94;5286835;28;20040;-75
2022/09/07 05:14:33;;;;;;;9.73;7.43;;;;;;;15.99;99.81;101013.59;5286681;28;20032;-75
2022/09/07 05:17:06;;;;;;;9.87;8.20;;;;;;;15.81;100.00;101011.50;5286886;28;20040;-76
2022/09/07 05:19:37;;;;;;;;;;;;;;;15.91;100.00;101020.00;5287167;28;20074;-76
2022/09/07 05:22:09;;;;;;;9.35;8.18;;;;;;;15.72;100.00;101017.91;5286899;28;19999;-75
2022/09/07 05:24:40;;;;;;;9.48;8.48;;;;;;;15.87;100.00;101019.22;5286746;28;20052;-75
2022/09/07 05:27:12;;;;;;;9.60;8.60;;;;;;;15.90;100.00;101021.75;5287744;28;20028;-75
2022/09/07 05:29:44;;;;;;;10.63;8.40;;;;;;;15.91;100.00;101025.25;5292828;28;20043;-74
2022/09/07 05:32:15;;;;;;;13.17;9.10;;;;;;;16.02;100.00;101034.53;5287130;28;20076;-74
2022/09/07 05:34:46;;;;;;;9.93;8.93;;;;;;;15.99;100.00;101024.09;5286325;28;20033;-74
2022/09/07 05:37:18;;;;;;;8.77;7.80;;;;;;;16.11;100.00;101014.09;5286503;28;20036;-75
2022/09/07 05:39:53;;;;;;;12.70;9.10;;;;;;;16.07;100.00;101028.25;5286379;28;20039;-74
2022/09/07 05:42:25;;;;;;;10.65;9.50;;;;;;;16.17;100.00;101027.91;5285872;28;20063;-75
2022/09/07 05:44:57;;;;;;;13.70;10.00;;;;;;;16.25;100.00;101035.56;5284617;28;20440;-74
2022/09/07 05:47:28;;;;;;;14.13;10.53;;;;;;;16.37;100.00;101032.53;5286373;28;20047;-74
2022/09/07 05:49:59;;;;;;;13.20;10.67;;;;;;;16.42;100.00;101034.97;5285876;28;20033;-74
2022/09/07 05:52:31;;;;;;;12.67;11.20;;;;;;;16.45;100.00;101037.50;5286195;28;20428;-74
2022/09/07 05:55:03;;;;;;;14.23;12.53;;;;;;;16.38;99.84;101039.50;5285489;28;20033;-74
2022/09/07 05:57:34;;;;;;;16.87;12.63;;;;;;;16.51;100.00;101039.94;5285833;28;20040;-74
2022/09/07 06:00:06;;;;;;;12.90;11.60;;;;;;;16.46;99.82;101047.16;5285494;28;20116;-74
2022/09/07 06:02:37;;;;;;;15.43;11.90;;;;;;;16.55;99.57;101048.59;5285931;28;20028;-75
2022/09/07 06:05:09;;;;;;;13.30;11.90;;;;;;;16.35;99.60;101057.16;5285520;28;20040;-76
2022/09/07 06:07:41;;;;;;;14.43;11.68;;;;;;;16.40;99.91;101052.59;5285699;28;20115;-75
2022/09/07 06:10:12;;;;;;;16.10;12.37;;;;;;;16.38;99.66;101059.69;5285770;28;20115;-75
2022/09/07 06:12:45;;;;;;;14.63;11.67;;;;;;;16.30;100.00;101056.44;5284123;28;20433;-76
2022/09/07 06:15:17;;;;;;;15.00;12.05;;;;;;;16.23;100.00;101058.44;5285696;28;20025;-76
2022/09/07 06:17:48;;;;;;;17.90;14.33;;;;;;;16.15;100.00;101053.41;5284875;28;20047;-76
2022/09/07 06:20:19;;;;;;;18.50;15.90;;;;;;;16.20;100.00;101053.25;5285677;28;20024;-76
2022/09/07 06:22:51;;;;;;;20.40;15.77;;;;;;;16.34;100.00;101058.94;5285324;28;20028;-76
2022/09/07 06:25:22;;;;;;;18.63;16.33;;;;;;;16.37;100.00;101061.47;5283839;28;20040;-76
2022/09/07 06:27:54;;;;;;;18.83;16.93;;;;;;;16.34;100.00;101058.06;5285583;28;20094;-74
2022/09/07 06:30:25;;;;;;;20.73;17.57;;;;;;;16.40;100.00;101069.28;5285419;28;20119;-75
2022/09/07 06:32:56;;;;;;;21.37;18.13;;;;;;;16.43;100.00;101068.28;5285726;28;20037;-75
2022/09/07 06:35:28;;;;;;;21.70;19.43;;;;;;;16.46;100.00;101072.59;5285022;28;20039;-74
2022/09/07 06:37:59;;;;;;;23.67;20.60;;;;;;;16.46;100.00;101070.81;5285251;28;20029;-75
2022/09/07 06:40:32;;;;;;;25.23;22.40;;;;;;;16.50;100.00;101074.22;5285995;28;20052;-75
2022/09/07 06:43:03;;;;;;;25.27;22.75;;;;;;;16.54;100.00;101075.84;5285206;28;20028;-76
2022/09/07 06:45:34;;;;;;;27.70;22.83;;;;;;;16.52;100.00;101075.03;5285126;28;20037;-75
2022/09/07 06:48:06;;;;;;;27.80;24.03;;;;;;;16.64;100.00;101071.13;5284693;28;20028;-75
2022/09/07 06:50:38;;;;;;;29.90;26.03;;;;;;;16.68;100.00;101078.00;5283439;28;20036;-75
2022/09/07 06:53:09;;;;;;;29.85;26.60;;;;;;;16.72;100.00;101083.09;5284974;28;20020;-76
2022/09/07 06:55:43;;;;;;;27.20;24.53;;;;;;;16.81;100.00;101092.47;5284561;28;20115;-75
2022/09/07 06:58:14;;;;;;;28.80;25.75;;;;;;;16.79;100.00;101086.38;5284962;28;20074;-76
2022/09/07 07:00:45;;;;;;;27.97;24.87;;;;;;;16.85;100.00;101085.34;5284544;28;20150;-77
2022/09/07 07:03:17;;;;;;;30.17;26.73;;;;;;;16.96;100.00;101088.50;5284745;28;20090;-75
2022/09/07 07:05:52;;;;;;;29.53;26.33;;;;;;;17.04;100.00;101093.50;5284470;28;20090;-75
2022/09/07 07:08:24;;;;;;;29.83;26.75;;;;;;;16.95;100.00;101090.28;5286994;28;20070;-75
2022/09/07 07:11:01;;;;;;;31.55;28.20;;;;;;;16.89;100.00;101092.25;5299627;28;20052;-76
2022/09/07 07:13:36;;;;;;;31.55;28.15;;;;;;;16.97;100.00;101092.84;5293442;28;20055;-76
2022/09/07 07:16:10;;;;;;;33.25;28.05;;;;;;;16.93;100.00;101089.44;5284418;28;20064;-76
2022/09/07 07:18:43;;;;;;;43.58;28.80;;;;;;;17.26;100.00;101090.97;5284196;28;20422;-76
2022/09/07 07:21:14;;;;;;;33.60;30.02;;;;;;;17.38;100.00;101084.38;5284461;28;20470;-75
2022/09/07 07:23:51;;;;;;;30.57;27.37;;;;;;;17.68;100.00;101085.03;5284013;28;20036;-75
2022/09/07 07:26:26;;;;;;;31.98;28.48;;;;;;;17.76;98.42;101087.34;5283854;28;20335;-75
2022/09/07 07:28:58;;;;;;;30.27;27.13;;;;;;;17.85;97.92;101092.28;5282020;28;20039;-74
2022/09/07 07:31:31;;;;;;;29.73;26.90;;;;;;;18.00;97.86;101094.38;5283836;28;20029;-75
2022/09/07 07:34:04;;;;;;;30.70;27.80;;;;;;;17.96;96.08;101089.28;5284095;28;20024;-75
2022/09/07 07:36:36;;;;;;;31.42;28.25;;;;;;;18.19;96.74;101093.63;5284255;28;20047;-76
2022/09/07 07:39:09;;;;;;;29.80;26.97;;;;;;;18.14;95.62;101106.16;5282749;28;20060;-74
2022/09/07 07:41:40;;;;;;;31.17;27.83;;;;;;;17.99;95.33;101100.56;5283838;28;20028;-75
2022/09/07 07:44:12;;;;;;;29.80;26.80;;;;;;;18.07;95.96;101100.28;5283835;28;20388;-75
2022/09/07 07:46:49;;;;;;;31.73;28.42;;;;;;;17.92;95.09;101114.03;5284082;28;20025;-73
2022/09/07 07:49:21;;;;;;;28.50;25.77;;;;;;;18.12;96.37;101116.78;5284135;28;20067;-76
2022/09/07 07:51:53;;;;;;;27.87;25.17;;;;;;;18.18;93.73;101113.06;5284447;28;20476;-76
2022/09/07 07:54:25;;;;;;;26.98;24.17;;;;;;;18.12;93.81;101113.28;5283802;28;20025;-75
2022/09/07 07:56:56;;;;;;;28.40;25.40;;;;;;;18.26;94.26;101107.44;5283652;28;20111;-76
2022/09/07 07:59:27;;;;;;;27.83;25.07;;;;;;;18.19;93.59;101114.75;5287673;28;20055;-77
2022/09/07 08:02:03;;;;;;;26.73;24.30;;;;;;;18.35;94.28;101112.38;5305530;28;20104;-76
2022/09/07 08:04:35;;;;;;;27.85;25.05;;;;;;;18.36;94.04;101122.00;5287479;28;20131;-76
2022/09/07 08:07:06;;;;;;;25.95;23.27;;;;;;;18.52;93.96;101124.91;5283621;28;20043;-76
2022/09/07 08:09:43;;;;;;;24.20;21.80;;;;;;;18.61;93.07;101123.66;5283375;28;20075;-76
2022/09/07 08:12:17;;;;;;;23.80;21.60;;;;;;;18.61;92.89;101126.28;5283227;28;20399;-76
2022/09/07 08:14:49;;;;;;;24.67;22.15;;;;;;;18.55;91.49;101132.69;5283443;28;20035;-76
2022/09/07 08:17:21;;;;;;;;;;;;;;;18.82;91.25;101128.06;5283778;28;20098;-76
2022/09/07 08:19:54;;;;;;;23.03;20.73;;;;;;;18.95;91.65;101120.50;5283370;28;19913;-75
2022/09/07 08:22:25;;;;;;;23.35;21.02;;;;;;;18.83;89.57;101132.41;5283378;28;20042;-74
2022/09/07 08:24:57;;;;;;;21.33;19.27;;;;;;;18.86;89.83;101142.03;5282995;28;20037;-74
2022/09/07 08:27:28;;;;;;;22.50;20.30;;;;;;;18.87;89.45;101128.75;5282932;28;20433;-77
2022/09/07 08:30:00;;;;;;;21.33;19.47;;;;;;;18.94;88.71;101134.63;5283310;28;20039;-75
2022/09/07 08:32:31;;;;;;;21.90;19.63;;;;;;;18.99;89.00;101130.00;5283727;28;20044;-76
2022/09/07 08:35:02;;;;;;;21.77;19.87;;;;;;;19.12;88.21;101136.47;5282805;28;20295;-74
2022/09/07 08:37:34;;;;;;;20.53;18.73;;;;;;;19.21;87.63;101137.03;5282712;28;20033;-75
2022/09/07 08:40:06;;;;;;;19.73;17.90;;;;;;;19.23;87.02;101137.81;5282968;28;20364;-75
2022/09/07 08:42:55;;;;;;;18.50;16.70;;;;;;;19.33;87.12;101146.19;5282921;28;20436;-74
2022/09/07 08:45:33;;;;;;;18.98;17.17;;;;;;;19.31;85.71;101138.34;5282569;28;20082;-75
2022/09/07 08:48:04;;;;;;;18.92;17.02;;;;;;;19.51;86.33;101148.00;5283469;28;20132;-75
2022/09/07 08:50:35;;;;;;;16.93;15.27;;;;;;;19.63;84.49;101139.53;5292192;28;20028;-77
2022/09/07 08:53:16;;;;;;;19.17;15.87;;;;;;;19.83;84.94;101143.94;5295007;28;20099;-76
2022/09/07 08:56:11;;;;;;;16.50;14.77;;;;;;;19.90;83.39;101136.63;5283055;28;20102;-78
2022/09/07 08:58:49;;;;;;;15.38;13.88;;;;;;;20.13;83.57;101148.75;5283030;28;20215;-76
2022/09/07 09:01:40;;;;;;;14.70;13.20;;;;;;;20.18;82.56;101141.44;5281651;28;20132;-76
2022/09/07 09:04:23;;;;;;;14.88;13.07;;;;;;;20.40;80.36;101143.09;5282945;28;20036;-76
2022/09/07 09:07:17;;;;;;;;;;;;;;;20.82;79.27;101147.25;5283330;28;20133;-77
2022/09/07 09:10:24;;;;;;;14.45;11.82;;;;;;;21.31;77.42;101146.50;5282478;28;20359;-77
2022/09/07 09:13:21;;;;;;;13.00;11.20;;;;;;;21.61;73.89;101146.72;5282835;28;20118;-74
2022/09/07 09:15:52;;;;;;;11.65;10.40;;;;;;;21.82;72.16;101150.03;5282488;28;20028;-76
2022/09/07 09:18:35;;;;;;;11.10;10.00;;;;;;;22.03;70.89;101145.31;5282603;28;20040;-75
2022/09/07 09:21:13;;;;;;;12.77;10.43;;;;;;;22.08;70.93;101142.41;5282720;28;20035;-75
2022/09/07 09:23:48;;;;;;;11.65;9.60;;;;;;;22.42;67.30;101151.19;5281527;28;20040;-75
2022/09/07 09:26:23;;;;;;;10.50;9.25;;;;;;;22.75;67.60;101153.69;5281906;28;20031;-77
2022/09/07 09:28:56;;;;;;;13.43;9.63;;;;;;;23.29;65.50;101147.88;5282601;28;20056;-77
2022/09/07 09:31:32;;;;;;;8.95;7.97;;;;;;;23.61;61.14;101155.69;5282536;28;20036;-77
2022/09/07 09:34:04;;;;;;;9.75;7.95;;;;;;;23.89;62.92;101146.00;5282369;28;20028;-75
2022/09/07 09:36:49;;;;;;;9.07;7.53;;;;;;;23.85;60.82;101149.84;5282335;28;20119;-75
2022/09/07 09:39:34;;;;;;;9.25;7.68;;;;;;;23.62;61.03;101144.09;5282416;28;20128;-76
2022/09/07 09:42:37;;;;;;;9.00;7.07;;;;;;;22.72;62.95;101143.25;5282425;28;20025;-75
2022/09/07 09:45:20;;;;;;;8.90;6.25;;;;;;;23.11;63.77;101141.03;5247983;28;20051;-76
2022/09/07 09:47:52;;;;;;;;;;;;;;;24.08;60.57;101148.34;5282995;28;20361;-76
2022/09/07 09:50:27;;;;;;;;;;;;;;;24.25;59.20;101143.75;5282626;28;19915;-77
2022/09/07 09:53:00;;;;;;;8.18;5.57;;;;;;;23.71;59.28;101141.81;5285670;28;19958;-76
2022/09/07 09:55:35;;;;;;;8.50;4.85;;;;;;;23.15;60.78;101144.34;5285474;28;20035;-76
2022/09/07 09:58:30;;;;;;;7.90;4.72;;;;;;;24.16;58.93;101143.38;5286040;28;20024;-76
2022/09/07 10:01:19;;;;;;;8.15;3.78;;;;;;;24.42;57.30;101146.16;5286188;28;20075;-75
2022/09/07 10:03:50;;;;;;;7.10;3.83;;;;;;;24.19;55.74;101132.53;5284904;28;20502;-75
2022/09/07 10:06:22;;;;;;;5.63;3.50;;;;;;;23.96;56.84;101134.03;5286126;28;20139;-76
2022/09/07 10:08:57;;;;;;;8.93;3.65;;;;;;;23.56;59.75;101133.00;5285863;28;20035;-77
2022/09/07 10:11:43;;;;;;;8.15;3.90;;;;;;;23.72;60.23;101136.41;5285864;28;20388;-77
2022/09/07 10:14:24;;;;;;;8.45;3.70;;;;;;;25.00;56.90;101141.47;5286043;28;20032;-76
2022/09/07 10:16:57;;;;;;;15.30;4.17;;;;;;;26.10;51.77;101129.38;5285903;28;20423;-77
2022/09/07 10:19:38;;;;;;;7.03;3.45;;;;;;;26.94;51.00;101118.72;5285829;28;20468;-78
2022/09/07 10:22:31;;;;;;;8.52;3.42;;;;;;;27.24;49.05;101122.63;5286062;28;20456;-77
2022/09/07 10:25:23;;;;;;;7.38;3.80;;;;;;;27.80;48.40;101129.84;5285686;28;20077;-77
2022/09/07 10:28:13;;;;;;;6.25;2.35;;;;;;;28.04;46.16;101123.53;5285975;28;20521;-79
2022/09/07 10:31:06;;;;;;;8.63;3.10;;;;;;;27.28;48.33;101121.44;5291566;28;20040;-77
2022/09/07 10:33:55;;;;;;;7.93;2.60;;;;;;;27.97;44.50;101126.69;5288210;28;20107;-76
2022/09/07 10:36:52;;;;;;;6.32;2.65;;;;;;;28.14;46.43;101119.09;5284951;28;20040;-78
2022/09/07 10:39:34;;;;;;;8.27;2.78;;;;;;;27.91;44.91;101110.25;5285751;28;20025;-77
2022/09/07 10:42:21;;;;;;;8.00;3.30;;;;;;;28.59;42.06;101118.97;5285655;28;20444;-76
2022/09/07 10:45:36;;;;;;;9.43;4.03;;;;;;;29.56;44.25;101115.19;5285289;28;20111;-78
2022/09/07 10:48:17;;;;;;;7.53;2.78;;;;;;;28.68;40.79;101104.78;5221039;28;20112;-76
2022/09/07 10:50:58;;;;;;;7.05;2.50;;;;;;;29.74;40.32;101102.84;5280111;28;20068;-77
2022/09/07 10:53:32;;;;;;;7.07;3.00;;;;;;;28.85;40.04;101106.06;5285428;28;20134;-73
2022/09/07 10:56:17;;;;;;;6.43;2.45;;;;;;;30.10;41.89;101103.22;5284769;28;20032;-76
2022/09/07 10:59:30;;;;;;;12.63;3.72;;;;;;;29.78;39.69;101108.78;5285086;28;20486;-77
2022/09/07 11:02:16;;;;;;;6.65;2.65;;;;;;;28.14;44.50;101105.72;5284835;28;20021;-77
2022/09/07 11:05:00;;;;;;;6.68;2.60;;;;;;;27.34;45.23;101099.59;5284338;28;20032;-78
2022/09/07 11:07:52;;;;;;;6.15;2.47;;;;;;;26.74;45.94;101094.34;5284921;28;20036;-76
2022/09/07 11:10:53;;;;;;;7.30;3.08;;;;;;;26.28;46.53;101103.13;5284922;28;20028;-77
2022/09/07 11:13:30;;;;;;;7.45;2.97;;;;;;;25.34;48.61;101098.28;5285184;28;20361;-76
2022/09/07 11:16:07;;;;;;;6.85;2.35;;;;;;;26.83;46.63;101092.78;5284900;28;20082;-78
2022/09/07 11:18:47;;;;;;;7.38;2.92;;;;;;;27.88;43.08;101089.06;5290902;28;20036;-77
2022/09/07 11:21:24;;;;;;;6.50;2.55;;;;;;;28.52;42.89;101088.28;5298283;28;20058;-76
2022/09/07 11:24:12;;;;;;;8.73;3.03;;;;;;;28.36;41.00;101092.22;5285245;28;20138;-76
2022/09/07 11:26:52;;;;;;;10.00;3.15;;;;;;;26.19;44.80;101087.75;5284478;28;20376;-74
2022/09/07 11:29:26;;;;;;;7.40;2.88;;;;;;;25.99;45.97;101090.06;5284463;28;20029;-74
2022/09/07 11:32:06;;;;;;;8.95;3.10;;;;;;;25.97;45.42;101086.69;5284568;28;20028;-75
2022/09/07 11:34:47;;;;;;;8.05;2.72;;;;;;;26.31;44.86;101091.34;5284408;28;20460;-74
2022/09/07 11:37:28;;;;;;;7.30;3.28;;;;;;;26.18;48.50;101081.56;5284321;28;20043;-77
2022/09/07 11:40:10;;;;;;;8.25;2.90;;;;;;;27.69;45.58;101084.34;5284253;28;20352;-77
2022/09/07 11:42:49;;;;;;;11.68;3.38;;;;;;;27.98;41.37;101084.69;5283897;28;20040;-76
2022/09/07 11:45:29;;;;;;;7.85;3.15;;;;;;;28.02;40.91;101084.31;5282634;28;20049;-76
2022/09/07 11:48:10;;;;;;;8.07;2.85;;;;;;;27.66;41.31;101080.09;5284118;28;20024;-76
2022/09/07 11:50:47;;;;;;;7.60;2.92;;;;;;;29.16;41.73;101081.94;5282864;28;20035;-79
2022/09/07 11:53:22;;;;;;;6.10;2.80;;;;;;;30.35;36.89;101079.47;5284147;28;20032;-77
2022/09/07 11:56:03;;;;;;;9.15;2.92;;;;;;;32.11;36.58;101077.06;5282197;28;20357;-80
2022/09/07 11:58:58;;;;;;;5.72;2.83;;;;;;;31.51;35.27;101076.66;5283580;28;20025;-81
2022/09/07 12:01:35;;;;;;;8.73;3.40;;;;;;;31.00;35.94;101081.56;5284437;28;20099;-80
2022/09/07 12:04:23;;;;;;;5.70;2.65;;;;;;;30.99;37.15;101077.16;5283037;28;20032;-78
2022/09/07 12:07:04;;;;;;;6.60;2.78;;;;;;;30.36;33.99;101087.38;5284589;28;20472;-79